createdAt,value
2023-01-18T00:01:20.534Z,96828.75
2023-01-18T00:03:47.638Z,96827.84
2023-01-18T00:06:15.109Z,96831.06
2023-01-18T00:08:42.661Z,96832.16
2023-01-18T00:11:15.686Z,96823.47
2023-01-18T00:13:43.383Z,96822.56
2023-01-18T00:16:19.099Z,96806.47
2023-01-18T00:18:54.413Z,96811.09
2023-01-18T00:21:21.605Z,96814.25
2023-01-18T00:23:48.528Z,96811.72
2023-01-18T00:26:15.788Z,96815.63
2023-01-18T00:28:43.257Z,96813.03
2023-01-18T00:31:16.350Z,96819.13
2023-01-18T00:33:44.397Z,96807.75
2023-01-18T00:36:12.452Z,96813.59
2023-01-18T00:38:39.718Z,96813.09
2023-01-18T00:41:06.667Z,96802.44
2023-01-18T00:43:39.358Z,96798.47
2023-01-18T00:46:10.497Z,96794.63
2023-01-18T00:48:41.470Z,96802.22
2023-01-18T00:51:11.162Z,96789.00
2023-01-18T00:53:38.838Z,96794.28
2023-01-18T00:56:10.966Z,96784.78
2023-01-18T00:58:38.148Z,96778.41
2023-01-18T01:01:07.218Z,96787.72
2023-01-18T01:03:54.663Z,96772.03
2023-01-18T01:06:45.783Z,96764.66
2023-01-18T01:09:23.619Z,96762.59
2023-01-18T01:12:10.339Z,96763.41
2023-01-18T01:15:01.723Z,96760.44
2023-01-18T01:17:48.629Z,96771.41
2023-01-18T01:20:34.436Z,96792.03
2023-01-18T01:23:40.496Z,96814.81
2023-01-18T01:26:09.316Z,96812.47
2023-01-18T01:28:45.492Z,96844.47
2023-01-18T01:31:15.108Z,96842.03
2023-01-18T01:33:42.424Z,96850.56
2023-01-18T01:36:12.800Z,96826.75
2023-01-18T01:38:41.518Z,96805.66
2023-01-18T01:41:11.603Z,96794.03
2023-01-18T01:43:51.411Z,96792.09
2023-01-18T01:46:30.056Z,96798.44
2023-01-18T01:49:12.691Z,96790.03
2023-01-18T01:51:43.236Z,96801.19
2023-01-18T01:54:23.985Z,96779.31
2023-01-18T01:56:55.122Z,96784.78
2023-01-18T01:59:22.283Z,96768.19
2023-01-18T02:01:49.870Z,96769.81
2023-01-18T02:04:17.090Z,96767.72
2023-01-18T02:06:43.947Z,96761.84
2023-01-18T02:09:15.847Z,96782.16
2023-01-18T02:11:43.647Z,96760.22
2023-01-18T02:14:16.766Z,96767.16
2023-01-18T02:16:55.461Z,96768.88
2023-01-18T02:19:47.198Z,96783.53
2023-01-18T02:22:34.797Z,96784.56
2023-01-18T02:25:39.368Z,96783.94
2023-01-18T02:28:18.161Z,96786.78
2023-01-18T02:30:53.561Z,96774.75
2023-01-18T02:33:28.157Z,96782.56
2023-01-18T02:36:03.212Z,96788.16
2023-01-18T02:38:44.405Z,96781.91
2023-01-18T02:41:16.983Z,96785.38
2023-01-18T02:44:07.630Z,96791.56
2023-01-18T02:46:35.235Z,96784.28
2023-01-18T02:49:18.933Z,96792.13
2023-01-18T02:51:45.854Z,96810.41
2023-01-18T02:54:13.447Z,96811.53
2023-01-18T02:56:45.349Z,96814.50
2023-01-18T02:59:14.258Z,96812.22
2023-01-18T03:02:10.123Z,96809.22
2023-01-18T03:04:54.478Z,96814.66
2023-01-18T03:07:28.824Z,96802.13
2023-01-18T03:09:57.989Z,96800.88
2023-01-18T03:12:48.240Z,96791.00
2023-01-18T03:15:17.753Z,96784.22
2023-01-18T03:17:47.113Z,96785.56
2023-01-18T03:20:18.575Z,96791.16
2023-01-18T03:23:10.035Z,96784.56
2023-01-18T03:25:41.435Z,96796.19
2023-01-18T03:28:32.577Z,96782.31
2023-01-18T03:31:21.832Z,96792.97
2023-01-18T03:33:55.107Z,96808.63
2023-01-18T03:36:37.002Z,96809.25
2023-01-18T03:39:09.219Z,96804.72
2023-01-18T03:41:40.676Z,96802.47
2023-01-18T03:44:35.803Z,96788.13
2023-01-18T03:47:05.583Z,96792.84
2023-01-18T03:49:34.634Z,96810.59
2023-01-18T03:52:10.388Z,96806.97
2023-01-18T03:54:44.852Z,96815.59
2023-01-18T03:57:34.875Z,96827.16
2023-01-18T04:00:06.096Z,96817.72
2023-01-18T04:02:39.823Z,96827.22
2023-01-18T04:05:07.424Z,96820.88
2023-01-18T04:07:34.295Z,96824.34
2023-01-18T04:10:01.750Z,96833.88
2023-01-18T04:12:28.936Z,96823.28
2023-01-18T04:14:55.872Z,96839.84
2023-01-18T04:17:22.850Z,96827.22
2023-01-18T04:19:49.791Z,96824.47
2023-01-18T04:22:16.998Z,96837.78
2023-01-18T04:24:43.918Z,96826.03
2023-01-18T04:27:11.181Z,96828.25
2023-01-18T04:29:38.146Z,96825.78
2023-01-18T04:32:06.088Z,96827.00
2023-01-18T04:34:33.970Z,96831.75
2023-01-18T04:37:01.234Z,96834.41
2023-01-18T04:39:28.435Z,96823.63
2023-01-18T04:41:57.131Z,96823.75
2023-01-18T04:44:24.273Z,96821.09
2023-01-18T04:46:51.486Z,96819.13
2023-01-18T04:49:18.462Z,96814.53
2023-01-18T04:51:46.607Z,96805.41
2023-01-18T04:54:17.568Z,96819.88
2023-01-18T04:56:44.758Z,96807.16
2023-01-18T04:59:17.452Z,96821.69
2023-01-18T05:01:44.430Z,96826.06
2023-01-18T05:04:11.329Z,96817.84
2023-01-18T05:06:38.286Z,96814.81
2023-01-18T05:09:05.301Z,96817.22
2023-01-18T05:11:32.175Z,96813.53
2023-01-18T05:13:59.141Z,96815.91
2023-01-18T05:16:26.090Z,96807.75
2023-01-18T05:18:52.986Z,96821.03
2023-01-18T05:21:20.301Z,96829.53
2023-01-18T05:23:47.303Z,96823.84
2023-01-18T05:26:22.807Z,96812.78
2023-01-18T05:28:50.958Z,96825.50
2023-01-18T05:31:21.424Z,96820.22
2023-01-18T05:33:48.974Z,96827.59
2023-01-18T05:36:15.973Z,96827.72
2023-01-18T05:38:42.848Z,96837.94
2023-01-18T05:41:09.754Z,96831.53
2023-01-18T05:43:38.307Z,96832.88
2023-01-18T05:46:05.679Z,96834.31
2023-01-18T05:48:32.616Z,96832.53
2023-01-18T05:50:59.679Z,96840.94
2023-01-18T05:53:26.654Z,96843.09
2023-01-18T05:56:01.961Z,96834.81
2023-01-18T05:58:29.369Z,96842.75
2023-01-18T06:00:56.785Z,96842.53
2023-01-18T06:03:25.285Z,96846.47
2023-01-18T06:05:52.526Z,96849.53
2023-01-18T06:08:20.240Z,96844.69
2023-01-18T06:10:54.456Z,96852.81
2023-01-18T06:13:22.872Z,96849.88
2023-01-18T06:15:49.879Z,96853.97
2023-01-18T06:18:16.745Z,96832.63
2023-01-18T06:20:44.216Z,96836.81
2023-01-18T06:23:11.116Z,96843.88
2023-01-18T06:25:38.261Z,96843.69
2023-01-18T06:28:05.436Z,96851.72
2023-01-18T06:30:34.574Z,96864.59
2023-01-18T06:33:07.084Z,96869.00
2023-01-18T06:35:34.659Z,96870.69
2023-01-18T06:38:02.808Z,96868.88
2023-01-18T06:40:30.453Z,96863.38
2023-01-18T06:42:57.806Z,96878.03
2023-01-18T06:45:26.045Z,96877.72
2023-01-18T06:47:53.461Z,96887.25
2023-01-18T06:50:20.611Z,96890.03
2023-01-18T06:52:47.770Z,96897.97
2023-01-18T06:55:15.725Z,96900.78
2023-01-18T06:57:42.953Z,96905.53
2023-01-18T07:00:12.051Z,96906.22
2023-01-18T07:02:39.039Z,96908.00
2023-01-18T07:05:06.745Z,96906.16
2023-01-18T07:07:33.820Z,96911.34
2023-01-18T07:10:00.697Z,96909.81
2023-01-18T07:12:27.761Z,96908.56
2023-01-18T07:14:54.727Z,96902.97
2023-01-18T07:17:21.654Z,96912.09
2023-01-18T07:19:48.682Z,96907.94
2023-01-18T07:22:15.531Z,96913.53
2023-01-18T07:24:42.453Z,96911.50
2023-01-18T07:27:09.381Z,96904.63
2023-01-18T07:29:36.457Z,96900.94
2023-01-18T07:32:03.540Z,96893.44
2023-01-18T07:34:30.745Z,96887.56
2023-01-18T07:36:57.843Z,96886.59
2023-01-18T07:39:24.808Z,96883.34
2023-01-18T07:41:51.771Z,96910.25
2023-01-18T07:44:18.874Z,96907.00
2023-01-18T07:46:45.894Z,96923.41
2023-01-18T07:49:12.859Z,96935.03
2023-01-18T07:51:39.934Z,96949.84
2023-01-18T07:54:07.527Z,96942.00
2023-01-18T07:56:34.523Z,96944.13
2023-01-18T07:59:01.348Z,96934.56
2023-01-18T08:01:28.939Z,96935.72
2023-01-18T08:03:55.874Z,96938.16
2023-01-18T08:06:25.170Z,96930.03
2023-01-18T08:08:54.112Z,96918.59
2023-01-18T08:11:21.277Z,96926.16
2023-01-18T08:13:49.458Z,96928.25
2023-01-18T08:16:16.657Z,96924.69
2023-01-18T08:18:45.638Z,96923.31
2023-01-18T08:21:13.632Z,96925.16
2023-01-18T08:23:41.186Z,96917.69
2023-01-18T08:26:10.412Z,96921.38
2023-01-18T08:28:37.439Z,96937.63
2023-01-18T08:31:17.086Z,96927.47
2023-01-18T08:33:47.103Z,96914.47
2023-01-18T08:36:16.583Z,96906.72
2023-01-18T08:38:47.208Z,96918.50
2023-01-18T08:41:14.150Z,96923.44
2023-01-18T08:43:41.151Z,96920.78
2023-01-18T08:46:08.168Z,96933.34
2023-01-18T08:48:35.144Z,96958.22
2023-01-18T08:51:03.305Z,96933.00
2023-01-18T08:53:31.457Z,96933.66
2023-01-18T08:55:58.420Z,96922.91
2023-01-18T08:58:25.813Z,96916.38
2023-01-18T09:00:53.690Z,96911.28
2023-01-18T09:03:22.003Z,96904.75
2023-01-18T09:05:49.663Z,96904.97
2023-01-18T09:08:17.706Z,96906.19
2023-01-18T09:10:45.273Z,96904.34
2023-01-18T09:13:12.391Z,96884.19
2023-01-18T09:15:39.496Z,96912.66
2023-01-18T09:18:08.173Z,96910.72
2023-01-18T09:20:36.351Z,96921.88
2023-01-18T09:23:05.182Z,96919.66
2023-01-18T09:25:32.171Z,96923.19
2023-01-18T09:28:00.900Z,96907.28
2023-01-18T09:30:27.783Z,96918.28
2023-01-18T09:32:54.763Z,96919.88
2023-01-18T09:35:21.617Z,96917.81
2023-01-18T09:37:48.563Z,96925.63
2023-01-18T09:40:18.201Z,96917.03
2023-01-18T09:42:47.706Z,96908.34
2023-01-18T10:18:11.397Z,96929.44
2023-01-18T10:20:49.153Z,96906.41
2023-01-18T10:23:24.940Z,96919.59
2023-01-18T10:26:08.391Z,96915.06
2023-01-18T10:28:41.385Z,96909.56
2023-01-18T10:31:23.377Z,96935.25
2023-01-18T10:33:56.213Z,96934.63
2023-01-18T10:36:33.606Z,96945.63
2023-01-18T10:39:05.479Z,96925.94
2023-01-18T10:41:37.959Z,96936.22
2023-01-18T10:44:05.092Z,96929.25
2023-01-18T10:46:32.240Z,96944.81
2023-01-18T10:48:59.364Z,96945.44
2023-01-18T10:51:46.475Z,96949.75
2023-01-18T10:54:27.063Z,96954.59
2023-01-18T10:57:06.007Z,96952.19
2023-01-18T10:59:40.909Z,96933.03
2023-01-18T11:02:23.601Z,96946.69
2023-01-18T11:04:58.982Z,96952.03
2023-01-18T11:07:27.934Z,96952.56
2023-01-18T11:09:59.411Z,96952.59
2023-01-18T11:12:42.417Z,96945.28
2023-01-18T11:15:15.309Z,96953.44
2023-01-18T11:18:11.600Z,96935.06
2023-01-18T11:20:48.181Z,96943.84
2023-01-18T11:23:31.091Z,96923.63
2023-01-18T11:26:01.455Z,96950.16
2023-01-18T11:28:28.322Z,96948.31
2023-01-18T11:31:14.941Z,96938.34
2023-01-18T11:34:03.071Z,96953.81
2023-01-18T11:36:48.257Z,96911.41
2023-01-18T11:39:35.826Z,96918.50
2023-01-18T11:42:21.748Z,96914.25
2023-01-18T11:45:25.553Z,96906.09
2023-01-18T11:48:38.237Z,96888.06
2023-01-18T11:51:10.755Z,96900.44
2023-01-18T11:54:18.906Z,96878.66
2023-01-18T11:56:50.961Z,96871.88
2023-01-18T11:59:29.540Z,96885.31
2023-01-18T12:02:33.963Z,96880.63
2023-01-18T12:05:25.742Z,96895.28
2023-01-18T12:07:58.805Z,96913.81
2023-01-18T12:10:30.245Z,96898.56
2023-01-18T12:13:16.883Z,96917.06
2023-01-18T12:15:58.905Z,96930.13
2023-01-18T12:18:40.519Z,96931.66
2023-01-18T12:21:14.714Z,96930.97
2023-01-18T12:24:22.978Z,96955.81
2023-01-18T12:26:58.195Z,96942.81
2023-01-18T12:30:19.753Z,96942.94
2023-01-18T12:33:13.194Z,96961.25
2023-01-18T12:36:06.989Z,96960.03
2023-01-18T12:38:35.960Z,96963.31
2023-01-18T12:41:21.876Z,96969.78
2023-01-18T12:44:30.126Z,96963.84
2023-01-18T12:47:11.839Z,96972.91
2023-01-18T12:49:45.710Z,96980.44
2023-01-18T12:52:19.342Z,96977.47
2023-01-18T12:54:56.087Z,96976.78
2023-01-18T12:57:24.075Z,96972.59
2023-01-18T13:00:01.704Z,96987.72
2023-01-18T13:02:37.474Z,96976.75
2023-01-18T13:05:04.475Z,96998.44
2023-01-18T13:08:01.465Z,96984.16
2023-01-18T13:10:29.292Z,96963.97
2023-01-18T13:12:57.959Z,96964.91
2023-01-18T13:15:53.794Z,96974.94
2023-01-18T13:18:42.570Z,96968.63
2023-01-18T13:21:46.741Z,96975.81
2023-01-18T13:24:41.406Z,96961.34
2023-01-18T13:27:14.267Z,96980.28
2023-01-18T13:29:42.526Z,96969.94
2023-01-18T13:32:35.740Z,96977.50
2023-01-18T13:35:31.097Z,96977.28
2023-01-18T13:38:01.751Z,96983.41
2023-01-18T13:40:42.849Z,96988.28
2023-01-18T13:43:37.316Z,96984.00
2023-01-18T13:46:20.771Z,96983.63
2023-01-18T13:48:47.768Z,96991.59
2023-01-18T13:51:42.814Z,96994.44
2023-01-18T13:54:10.499Z,96996.69
2023-01-18T13:56:39.734Z,97004.84
2023-01-18T13:59:12.430Z,97006.28
2023-01-18T14:01:44.067Z,97012.78
2023-01-18T14:04:37.083Z,97003.59
2023-01-18T14:07:06.534Z,97014.59
2023-01-18T14:09:48.986Z,97021.53
2023-01-18T14:12:16.129Z,97024.38
2023-01-18T14:14:53.777Z,97029.47
2023-01-18T14:17:20.959Z,97023.34
2023-01-18T14:19:47.751Z,97038.41
2023-01-18T14:22:33.179Z,97040.88
2023-01-18T14:25:21.217Z,97042.88
2023-01-18T14:28:01.680Z,97045.53
2023-01-18T14:30:35.508Z,97041.25
2023-01-18T14:33:23.896Z,97045.50
2023-01-18T14:35:57.884Z,97055.50
2023-01-18T14:38:26.085Z,97054.63
2023-01-18T14:40:57.292Z,97068.28
2023-01-18T14:43:35.173Z,97078.06
2023-01-18T14:46:07.473Z,97083.16
2023-01-18T14:48:40.079Z,97092.25
2023-01-18T14:51:07.203Z,97093.06
2023-01-18T14:53:46.215Z,97102.84
2023-01-18T14:56:20.487Z,97094.69
2023-01-18T14:59:03.264Z,97095.06
2023-01-18T15:01:39.683Z,97097.00
2023-01-18T15:04:18.463Z,97089.44
2023-01-18T15:06:49.948Z,97083.00
2023-01-18T15:09:21.058Z,97080.31
2023-01-18T15:11:49.644Z,97093.56
2023-01-18T15:14:20.859Z,97088.25
2023-01-18T15:16:50.698Z,97092.41
2023-01-18T15:19:43.258Z,97106.84
2023-01-18T15:22:15.979Z,97103.69
2023-01-18T15:24:45.504Z,97110.81
2023-01-18T15:27:18.258Z,97127.94
2023-01-18T15:29:54.168Z,97128.38
2023-01-18T15:32:23.713Z,97131.03
2023-01-18T15:34:52.958Z,97133.72
2023-01-18T15:37:32.405Z,97138.72
2023-01-18T15:40:02.209Z,97141.75
2023-01-18T15:42:44.366Z,97137.47
2023-01-18T15:45:25.792Z,97145.84
2023-01-18T15:48:14.638Z,97150.25
2023-01-18T15:50:53.248Z,97147.78
2023-01-18T15:53:31.799Z,97150.75
2023-01-18T15:56:04.963Z,97155.25
2023-01-18T15:58:43.054Z,97164.00
2023-01-18T16:01:21.784Z,97175.59
2023-01-18T16:03:48.769Z,97172.34
2023-01-18T16:06:22.989Z,97179.81
2023-01-18T16:09:12.102Z,97176.56
2023-01-18T16:11:54.403Z,97194.50
2023-01-18T16:14:24.908Z,97193.28
2023-01-18T16:16:53.602Z,97201.41
2023-01-18T16:19:23.406Z,97208.91
2023-01-18T16:21:54.710Z,97216.16
2023-01-18T16:24:30.920Z,97218.81
2023-01-18T16:27:01.900Z,97219.22
2023-01-18T16:29:30.042Z,97221.19
2023-01-18T16:32:36.026Z,97227.09
2023-01-18T16:35:09.968Z,97235.81
2023-01-18T16:37:38.478Z,97244.53
2023-01-18T16:40:06.496Z,97250.28
2023-01-18T16:42:54.390Z,97249.31
2023-01-18T16:45:21.674Z,97254.81
2023-01-18T16:47:49.100Z,97249.63
2023-01-18T16:50:16.542Z,97258.31
2023-01-18T16:52:43.512Z,97259.16
2023-01-18T16:55:15.195Z,97255.50
2023-01-18T16:57:43.462Z,97262.53
2023-01-18T17:00:17.990Z,97265.38
2023-01-18T17:02:45.875Z,97265.19
2023-01-18T17:05:14.109Z,97259.06
2023-01-18T17:07:41.328Z,97269.47
2023-01-18T17:10:34.260Z,97266.91
2023-01-18T17:13:01.636Z,97276.50
2023-01-18T17:15:30.894Z,97278.34
2023-01-18T17:17:58.036Z,97282.72
2023-01-18T17:20:26.796Z,97283.91
2023-01-18T17:22:55.905Z,97289.88
2023-01-18T17:25:24.064Z,97292.41
2023-01-18T17:27:51.107Z,97291.75
2023-01-18T17:30:21.749Z,97287.03
2023-01-18T17:32:49.258Z,97296.53
2023-01-18T17:35:18.233Z,97290.75
2023-01-18T17:37:45.823Z,97292.50
2023-01-18T17:40:22.698Z,97277.31
2023-01-18T17:42:52.985Z,97295.19
2023-01-18T17:45:19.907Z,97290.25
2023-01-18T17:47:46.828Z,97296.56
2023-01-18T17:50:21.645Z,97302.28
2023-01-18T17:52:49.107Z,97302.81
2023-01-18T17:55:17.841Z,97302.81
2023-01-18T17:57:47.083Z,97315.25
2023-01-18T18:00:16.215Z,97313.31
2023-01-18T18:02:43.609Z,97323.06
2023-01-18T18:05:10.981Z,97326.97
2023-01-18T18:07:38.257Z,97329.97
2023-01-18T18:10:05.912Z,97326.50
2023-01-18T18:12:35.163Z,97328.81
2023-01-18T18:15:03.112Z,97329.25
2023-01-18T18:17:31.599Z,97331.44
2023-01-18T18:19:58.810Z,97324.91
2023-01-18T18:22:26.221Z,97336.00
2023-01-18T18:24:53.807Z,97329.88
2023-01-18T18:27:23.165Z,97333.06
2023-01-18T18:29:50.843Z,97322.06
2023-01-18T18:32:17.859Z,97315.25
2023-01-18T18:34:44.841Z,97311.94
2023-01-18T18:37:11.934Z,97302.75
2023-01-18T18:39:39.085Z,97312.13
2023-01-18T18:42:06.187Z,97314.06
2023-01-18T18:44:33.179Z,97311.41
2023-01-18T18:47:00.433Z,97318.97
2023-01-18T18:49:28.184Z,97314.88
2023-01-18T18:51:55.319Z,97319.63
2023-01-18T18:54:22.607Z,97315.88
2023-01-18T18:56:49.558Z,97313.31
2023-01-18T18:59:16.668Z,97331.25
2023-01-18T19:01:43.793Z,97316.75
2023-01-18T19:04:10.796Z,97315.69
2023-01-18T19:06:38.436Z,97316.22
2023-01-18T19:09:05.878Z,97320.69
2023-01-18T19:11:32.962Z,97318.03
2023-01-18T19:14:00.134Z,97312.94
2023-01-18T19:16:27.292Z,97316.69
2023-01-18T19:18:54.260Z,97304.75
2023-01-18T19:21:21.513Z,97315.50
2023-01-18T19:23:48.461Z,97309.41
2023-01-18T19:26:15.589Z,97315.50
2023-01-18T19:28:42.523Z,97314.69
2023-01-18T19:31:09.465Z,97314.81
2023-01-18T19:33:36.892Z,97318.00
2023-01-18T19:36:14.425Z,97312.53
2023-01-18T19:38:46.046Z,97322.50
2023-01-18T19:41:13.978Z,97317.94
2023-01-18T19:43:41.898Z,97315.41
2023-01-18T19:46:10.908Z,97315.97
2023-01-18T19:48:39.361Z,97318.88
2023-01-18T19:51:20.861Z,97325.88
2023-01-18T19:53:48.428Z,97324.34
2023-01-18T19:56:15.358Z,97326.97
2023-01-18T19:58:42.254Z,97329.59
2023-01-18T20:01:11.483Z,97329.59
2023-01-18T20:03:38.723Z,97336.69
2023-01-18T20:06:15.705Z,97343.00
2023-01-18T20:08:42.953Z,97343.41
2023-01-18T20:11:13.181Z,97357.94
2023-01-18T20:13:42.828Z,97357.91
2023-01-18T20:16:10.444Z,97360.31
2023-01-18T20:18:40.658Z,97351.47
2023-01-18T20:21:14.222Z,97359.00
2023-01-18T20:23:43.816Z,97358.28
2023-01-18T20:26:11.939Z,97364.59
2023-01-18T20:28:39.264Z,97363.56
2023-01-18T20:31:06.568Z,97363.31
2023-01-18T20:33:35.390Z,97360.00
2023-01-18T20:36:03.297Z,97370.44
2023-01-18T20:38:30.607Z,97368.13
2023-01-18T20:40:58.039Z,97364.69
2023-01-18T20:43:25.028Z,97367.88
2023-01-18T20:46:10.437Z,97371.94
2023-01-18T20:48:38.434Z,97371.50
2023-01-18T20:51:07.553Z,97369.19
2023-01-18T20:53:35.042Z,97376.41
2023-01-18T20:56:12.000Z,97368.69
2023-01-18T20:58:51.258Z,97371.38
2023-01-18T21:01:18.764Z,97360.34
2023-01-18T21:03:47.529Z,97361.66
2023-01-18T21:06:16.173Z,97354.31
2023-01-18T21:08:43.075Z,97362.88
2023-01-18T21:11:15.022Z,97363.09
2023-01-18T21:13:42.019Z,97360.88
2023-01-18T21:16:08.960Z,97372.22
2023-01-18T21:18:37.716Z,97370.47
2023-01-18T21:21:04.717Z,97374.94
2023-01-18T21:23:37.979Z,97378.75
2023-01-18T21:26:07.844Z,97390.00
2023-01-18T21:28:35.050Z,97372.84
2023-01-18T21:31:02.514Z,97366.53
2023-01-18T21:33:29.718Z,97381.13
2023-01-18T21:36:04.142Z,97382.31
2023-01-18T21:38:31.230Z,97378.31
2023-01-18T21:41:18.404Z,97369.97
2023-01-18T21:44:03.985Z,97377.00
2023-01-18T21:46:31.071Z,97373.97
2023-01-18T21:49:02.215Z,97384.41
2023-01-18T21:51:47.926Z,97378.00
2023-01-18T21:54:14.965Z,97383.16
2023-01-18T21:56:45.418Z,97367.63
2023-01-18T21:59:13.378Z,97372.09
2023-01-18T22:01:45.420Z,97371.25
2023-01-18T22:04:32.979Z,97364.81
2023-01-18T22:07:00.377Z,97362.59
2023-01-18T22:09:29.269Z,97351.00
2023-01-18T22:11:57.505Z,97345.59
2023-01-18T22:14:25.852Z,97332.28
2023-01-18T22:16:53.536Z,97325.72
2023-01-18T22:19:20.507Z,97316.84
2023-01-18T22:21:48.641Z,97313.00
2023-01-18T22:24:17.081Z,97313.19
2023-01-18T22:26:45.298Z,97310.44
2023-01-18T22:29:13.211Z,97317.19
2023-01-18T22:31:40.454Z,97306.09
2023-01-18T22:34:08.204Z,97308.38
2023-01-18T22:36:35.203Z,97309.66
2023-01-18T22:39:02.376Z,97306.38
2023-01-18T22:41:30.213Z,97297.50
2023-01-18T22:43:57.550Z,97307.94
2023-01-18T22:46:25.002Z,97309.22
2023-01-18T22:48:52.604Z,97303.25
2023-01-18T22:51:22.533Z,97316.00
2023-01-18T22:53:50.447Z,97315.81
2023-01-18T22:56:23.120Z,97320.00
2023-01-18T22:58:50.828Z,97321.28
2023-01-18T23:01:21.922Z,97322.66
2023-01-18T23:03:50.345Z,97311.91
2023-01-18T23:06:18.801Z,97309.44
2023-01-18T23:08:47.296Z,97314.63
2023-01-18T23:11:29.820Z,97311.00
2023-01-18T23:14:16.642Z,97308.63
2023-01-18T23:17:02.713Z,97310.56
2023-01-18T23:19:31.019Z,97317.13
2023-01-18T23:21:58.272Z,97321.19
2023-01-18T23:24:25.578Z,97302.94
2023-01-18T23:26:52.792Z,97307.31
2023-01-18T23:29:20.315Z,97322.38
2023-01-18T23:31:47.492Z,97330.44
2023-01-18T23:34:14.735Z,97330.31
2023-01-18T23:36:41.685Z,97337.91
2023-01-18T23:39:27.279Z,97354.53
2023-01-18T23:42:12.875Z,97349.84
2023-01-18T23:44:58.437Z,97354.97
2023-01-18T23:47:44.080Z,97359.25
2023-01-18T23:50:30.389Z,97358.63
2023-01-18T23:53:18.973Z,97368.56
2023-01-18T23:55:46.234Z,97354.72
2023-01-18T23:58:13.329Z,97349.63
